This is the latest recevied weather packets stored in our database for station/object JA6YCL-13. If no packets are shown the sender has not sent any weather packets the latest 10 day(s).
| Time | Temp. | Humidity | Pressure | Rain* | Wind** | Luminosity | Snow |
|---|---|---|---|---|---|---|---|
| 1778038023 | 23.33° C | 52% | 1017.8 hPa | 0 mm | - | - | - |
| 1778037153 | 22.22° C | 54% | 1017.9 hPa | 0 mm | - | - | - |
| 1778036353 | 22.22° C | 54% | 1018 hPa | 0 mm | - | - | - |
| 1778035623 | 22.22° C | 53% | 1018.2 hPa | 0 mm | - | - | - |
| 1778034828 | 21.11° C | 58% | 1018.6 hPa | 0 mm | - | - | - |
| 1778034078 | 21.67° C | 56% | 1018.7 hPa | 0 mm | - | - | - |
| 1778033268 | 21.67° C | 57% | 1019 hPa | 0 mm | - | - | - |
| 1778032470 | 21.11° C | 57% | 1019 hPa | 0 mm | - | - | - |
| 1778031747 | 20.56° C | 57% | 1019.3 hPa | 0 mm | - | - | - |
| 1778030877 | 20° C | 58% | 1019.5 hPa | 0 mm | - | - | - |
| 1778030097 | 20° C | 57% | 1019.4 hPa | 0 mm | - | - | - |
| 1778029346 | 19.44° C | 58% | 1019.7 hPa | 0 mm | - | - | - |
| 1778028586 | 18.33° C | 59% | 1019.7 hPa | 0 mm | - | - | - |
| 1778027848 | 17.78° C | 62% | 1019.9 hPa | 0 mm | - | - | - |
| 1778027003 | 16.67° C | 66% | 1020.1 hPa | 0 mm | - | - | - |
| 1778026133 | 16.11° C | 68% | 1020.1 hPa | 0 mm | - | - | - |
| 1778025343 | 15.56° C | 69% | 1020.2 hPa | 0 mm | - | - | - |
| 1778024500 | 15° C | 70% | 1020.4 hPa | 0 mm | - | - | - |
| 1778023672 | 14.44° C | 73% | 1020.1 hPa | 0 mm | - | - | - |
| 1778022923 | 13.89° C | 74% | 1020.4 hPa | 0 mm | - | - | - |
| 1778022158 | 13.33° C | 76% | 1020.4 hPa | 0 mm | - | - | - |
| 1778021303 | 12.78° C | 81% | 1020.6 hPa | 0 mm | - | - | - |
| 1778020475 | 12.22° C | 82% | 1020.5 hPa | 0 mm | - | - | - |
| 1778019600 | 12.22° C | 81% | 1020.6 hPa | 0 mm | - | - | - |
| 1778018875 | 12.22° C | 81% | 1020.7 hPa | 0 mm | - | - | - |
* Rain latest hour (hover to see other rain measurements)
** Current wind speed in m/s (hover to see current wind gust speed)